Observations for ODIHAM RAF, United Kingdom (EGVO)

EGVO 211750Z 22010KT 6000 RA SCT004 BKN018 OVC035 09/08 Q1006 YLO2  
EGVO 211650Z 18011KT 6000 RA SCT007 OVC023 07/06 Q1007 GRN  
EGVO 211550Z 16015KT 4000 RA SCT004 BKN010 OVC019 06/06 Q1007 YLO2  
EGVO 211450Z 16015KT 6000 -RA BKN004 BKN016 OVC021 06/05 Q1008 YLO2 
EGVO 211350Z 14006KT 5000 -RADZ OVC004 04/04 Q1009 YLO2 
EGVO 211250Z 12007KT 4500 -RADZ OVC004 03/02 Q1011 YLO2 
EGVO 211150Z 11008KT 4500 RADZ OVC004 02/01 Q1012 YLO2  
EGVO 211050Z AUTO 13010KT 3600 -DZ SCT003/// BKN026/// 01/01 Q1013  
EGVO 210937Z 12008KT 1400 -SN BKN002 OVC013 00/00 Q1014 AMB 
EGVO 210937Z 12008KT 1400 -SN BKN002 OVC013 00/00 Q1014 AMB
EGVO 210850Z 12007KT 2300 RASN BKN003 OVC023 01/00 Q1014 YLO2   
EGVO 210834Z 12007KT 3000 -RASN BKN023 OVC035 01/01 Q1014 YLO1
EGVO 210750Z 12005KT 4000 -RADZ SCT022 BKN026 OVC050 02/01 Q1014 GRN
EGVO 210650Z AUTO 15002KT 6000 -RA OVC050/// 01/01 Q1014
EGVO 210550Z AUTO 21003KT 6000 BR FEW044/// OVC050/// 01/01 Q1014   
EGVO 210450Z AUTO 20003KT 6000 BR OVC080/// 01/01 Q1014 
EGVO 210350Z AUTO 33001KT 9000 BR FEW006/// BKN090/// 01/01 Q1013   
EGVO 210250Z AUTO 34003KT 9999 BKN008/// OVC090/// 02/01 Q1013  
EGVO 210150Z AUTO 33005KT 9999 OVC007/// 02/01 Q1013
EGVO 210050Z AUTO 34006KT 9999 BKN008/// BKN170/// 02/01 Q1012  
EGVO 202350Z AUTO 32003KT 9999 BKN008/// 02/02 Q1012
EGVO 202250Z AUTO 31005KT 6000 BR FEW006/// SCT008/// 02/02 Q1010   
EGVO 202150Z AUTO 35005KT 7000 BR OVC003/// 02/02 Q1009 
EGVO 202050Z AUTO 36007KT 5000 BR OVC002/// 02/02 Q1007 
EGVO 201950Z AUTO 01010KT 8000 BR OVC003/// 03/02 Q1005 
EGVO 201850Z 36008KT 4500 BR OVC003 03/03 Q1003 YLO2
EGVO 201750Z 03006KT 3300 -DZ OVC001 04/04 Q1001 RED